Terminal Aerodrome Forecast
Issued by NWS Bismarck, ND

Home | Current Version | Previous Version | Graphics & Text | Print | Product List | Glossary On
Versions: 1 2 3 4 5 6 7 8 9 10 11 12 13 14 15 16 17 18 19 20 21 22
000
FTUS43 KBIS 202334
TAFBIS
TAF
KBIS 202334Z 2100/2124 01007KT P6SM SCT050
     FM210500 10004KT 5SM BR FEW060
     FM210700 00000KT 3SM BR FEW040
     FM210900 00000KT 1SM BR SCT020
     FM211100 VRB03KT 1/2SM FG FEW015
     FM211500 16005KT P6SM FEW035
     FM211700 17007KT P6SM FEW150=

USA.gov is the U.S. government's official web portal to all federal, state and local government web resources and services.